Ionia, Iowa
Current Conditions -  °F | °C
As of 12:55 AM on Friday 28 Nov 2014 (Local Time) from KCCY Reporting Station
Overcast Overcast  
Wind Chill: -5°   Ceiling: 6500
Heat Index: 10°   Visibility: 10mi
Dew Point:   Wind: 13mph
Humidity: 73%   Direction: 140°SE
Pressure: 30.23"   Gusts: NA
Location:  43.03°N, 92.46°W
Report Text: KCCY 280655Z AUTO 14011KT 10SM FEW005 SCT055 OVC065 M12/M16 A3023 RMK AO2
Loading
Personal Weather Stations






























Interactive Weather Map New forecast layout! Learn more

10-Day Weather Forecast

Advertisements
Track Severe Weather on mobile